sensor_id;sensor_type;location;lat;lon;timestamp;P1;durP1;ratioP1;P2;durP2;ratioP2
4307;SDS011;2167;53.448;9.984;2023-05-07T00:00:19;11.40;;;6.90;;
4307;SDS011;2167;53.448;9.984;2023-05-07T00:02:45;11.77;;;6.53;;
4307;SDS011;2167;53.448;9.984;2023-05-07T00:05:11;9.67;;;6.17;;
4307;SDS011;2167;53.448;9.984;2023-05-07T00:07:37;7.93;;;6.27;;
4307;SDS011;2167;53.448;9.984;2023-05-07T00:10:03;11.53;;;6.30;;
4307;SDS011;2167;53.448;9.984;2023-05-07T00:12:31;10.23;;;6.60;;
4307;SDS011;2167;53.448;9.984;2023-05-07T00:14:58;9.50;;;5.97;;
4307;SDS011;2167;53.448;9.984;2023-05-07T00:17:27;11.37;;;6.80;;
4307;SDS011;2167;53.448;9.984;2023-05-07T00:19:53;10.90;;;6.90;;
4307;SDS011;2167;53.448;9.984;2023-05-07T00:22:18;11.00;;;5.93;;
4307;SDS011;2167;53.448;9.984;2023-05-07T00:24:44;9.63;;;5.37;;
4307;SDS011;2167;53.448;9.984;2023-05-07T00:27:10;9.90;;;5.60;;
4307;SDS011;2167;53.448;9.984;2023-05-07T00:29:35;6.43;;;4.77;;
4307;SDS011;2167;53.448;9.984;2023-05-07T00:32:01;10.10;;;6.20;;
4307;SDS011;2167;53.448;9.984;2023-05-07T00:34:27;9.97;;;6.10;;
4307;SDS011;2167;53.448;9.984;2023-05-07T00:36:52;7.60;;;5.70;;
4307;SDS011;2167;53.448;9.984;2023-05-07T00:39:18;10.77;;;6.17;;
4307;SDS011;2167;53.448;9.984;2023-05-07T00:41:43;8.30;;;5.30;;
4307;SDS011;2167;53.448;9.984;2023-05-07T00:44:09;9.73;;;5.00;;
4307;SDS011;2167;53.448;9.984;2023-05-07T00:46:35;12.63;;;6.23;;
4307;SDS011;2167;53.448;9.984;2023-05-07T00:49:01;10.67;;;6.60;;
4307;SDS011;2167;53.448;9.984;2023-05-07T00:51:27;10.67;;;6.20;;
4307;SDS011;2167;53.448;9.984;2023-05-07T00:53:53;8.70;;;5.13;;
4307;SDS011;2167;53.448;9.984;2023-05-07T00:56:20;7.50;;;4.70;;
4307;SDS011;2167;53.448;9.984;2023-05-07T00:58:47;10.80;;;5.70;;
4307;SDS011;2167;53.448;9.984;2023-05-07T01:01:13;8.00;;;5.10;;
4307;SDS011;2167;53.448;9.984;2023-05-07T01:03:40;13.07;;;6.40;;
4307;SDS011;2167;53.448;9.984;2023-05-07T01:06:06;7.17;;;5.27;;
4307;SDS011;2167;53.448;9.984;2023-05-07T01:08:33;8.73;;;5.13;;
4307;SDS011;2167;53.448;9.984;2023-05-07T01:11:00;8.47;;;5.87;;
4307;SDS011;2167;53.448;9.984;2023-05-07T01:13:27;9.90;;;5.93;;
4307;SDS011;2167;53.448;9.984;2023-05-07T01:15:53;8.10;;;4.20;;
4307;SDS011;2167;53.448;9.984;2023-05-07T01:18:18;7.03;;;5.40;;
4307;SDS011;2167;53.448;9.984;2023-05-07T01:20:44;7.27;;;4.03;;
4307;SDS011;2167;53.448;9.984;2023-05-07T01:23:11;9.30;;;5.40;;
4307;SDS011;2167;53.448;9.984;2023-05-07T01:25:37;8.87;;;5.40;;
4307;SDS011;2167;53.448;9.984;2023-05-07T01:28:02;8.73;;;5.00;;
4307;SDS011;2167;53.448;9.984;2023-05-07T01:30:28;6.97;;;4.23;;
4307;SDS011;2167;53.448;9.984;2023-05-07T01:33:06;6.17;;;4.50;;
4307;SDS011;2167;53.448;9.984;2023-05-07T01:35:37;11.33;;;6.63;;
4307;SDS011;2167;53.448;9.984;2023-05-07T01:38:06;8.00;;;4.00;;
4307;SDS011;2167;53.448;9.984;2023-05-07T01:40:33;5.90;;;4.27;;
4307;SDS011;2167;53.448;9.984;2023-05-07T01:42:59;7.63;;;5.03;;
4307;SDS011;2167;53.448;9.984;2023-05-07T01:45:30;9.33;;;5.10;;
4307;SDS011;2167;53.448;9.984;2023-05-07T01:47:57;8.83;;;5.10;;
4307;SDS011;2167;53.448;9.984;2023-05-07T01:50:23;6.87;;;4.60;;
4307;SDS011;2167;53.448;9.984;2023-05-07T01:52:50;7.57;;;4.83;;
4307;SDS011;2167;53.448;9.984;2023-05-07T01:55:16;7.97;;;4.57;;
4307;SDS011;2167;53.448;9.984;2023-05-07T01:57:41;5.27;;;4.33;;
4307;SDS011;2167;53.448;9.984;2023-05-07T02:00:07;6.40;;;4.80;;
4307;SDS011;2167;53.448;9.984;2023-05-07T02:02:34;7.77;;;4.90;;
4307;SDS011;2167;53.448;9.984;2023-05-07T02:05:00;5.40;;;4.13;;
4307;SDS011;2167;53.448;9.984;2023-05-07T02:07:28;8.70;;;5.20;;
4307;SDS011;2167;53.448;9.984;2023-05-07T02:09:54;7.20;;;5.10;;
4307;SDS011;2167;53.448;9.984;2023-05-07T02:12:22;9.03;;;5.00;;
4307;SDS011;2167;53.448;9.984;2023-05-07T02:14:48;8.03;;;4.80;;
4307;SDS011;2167;53.448;9.984;2023-05-07T02:17:14;5.97;;;3.90;;
4307;SDS011;2167;53.448;9.984;2023-05-07T02:19:40;5.70;;;4.23;;
4307;SDS011;2167;53.448;9.984;2023-05-07T02:22:06;7.10;;;4.33;;
4307;SDS011;2167;53.448;9.984;2023-05-07T02:24:32;5.17;;;4.07;;
4307;SDS011;2167;53.448;9.984;2023-05-07T02:26:58;5.40;;;4.07;;
4307;SDS011;2167;53.448;9.984;2023-05-07T02:29:23;9.57;;;5.23;;
4307;SDS011;2167;53.448;9.984;2023-05-07T02:31:49;7.40;;;5.23;;
4307;SDS011;2167;53.448;9.984;2023-05-07T02:34:16;8.37;;;4.90;;
4307;SDS011;2167;53.448;9.984;2023-05-07T02:36:42;10.00;;;4.97;;
4307;SDS011;2167;53.448;9.984;2023-05-07T02:39:07;7.27;;;5.10;;
4307;SDS011;2167;53.448;9.984;2023-05-07T02:41:33;7.07;;;4.70;;
4307;SDS011;2167;53.448;9.984;2023-05-07T02:43:59;7.47;;;4.97;;
4307;SDS011;2167;53.448;9.984;2023-05-07T02:46:24;6.13;;;4.17;;
4307;SDS011;2167;53.448;9.984;2023-05-07T02:48:50;7.63;;;4.43;;
4307;SDS011;2167;53.448;9.984;2023-05-07T02:51:19;7.57;;;5.60;;
4307;SDS011;2167;53.448;9.984;2023-05-07T02:53:45;9.47;;;6.37;;
4307;SDS011;2167;53.448;9.984;2023-05-07T02:56:11;9.20;;;5.60;;
4307;SDS011;2167;53.448;9.984;2023-05-07T02:58:37;8.50;;;5.40;;
4307;SDS011;2167;53.448;9.984;2023-05-07T03:01:04;8.00;;;5.37;;
4307;SDS011;2167;53.448;9.984;2023-05-07T03:03:30;13.10;;;6.33;;
4307;SDS011;2167;53.448;9.984;2023-05-07T03:05:56;8.23;;;4.87;;
4307;SDS011;2167;53.448;9.984;2023-05-07T03:08:22;10.10;;;5.60;;
4307;SDS011;2167;53.448;9.984;2023-05-07T03:10:48;7.33;;;4.70;;
4307;SDS011;2167;53.448;9.984;2023-05-07T03:13:13;9.10;;;4.80;;
4307;SDS011;2167;53.448;9.984;2023-05-07T03:15:39;7.27;;;5.20;;
4307;SDS011;2167;53.448;9.984;2023-05-07T03:18:05;11.80;;;5.63;;
4307;SDS011;2167;53.448;9.984;2023-05-07T03:20:31;13.60;;;5.67;;
4307;SDS011;2167;53.448;9.984;2023-05-07T03:22:56;9.33;;;6.50;;
4307;SDS011;2167;53.448;9.984;2023-05-07T03:25:22;8.27;;;5.70;;
4307;SDS011;2167;53.448;9.984;2023-05-07T03:27:48;9.57;;;5.40;;
4307;SDS011;2167;53.448;9.984;2023-05-07T03:30:14;6.17;;;4.70;;
4307;SDS011;2167;53.448;9.984;2023-05-07T03:32:39;9.73;;;5.90;;
4307;SDS011;2167;53.448;9.984;2023-05-07T03:35:05;9.73;;;5.23;;
4307;SDS011;2167;53.448;9.984;2023-05-07T03:37:31;8.23;;;5.30;;
4307;SDS011;2167;53.448;9.984;2023-05-07T03:39:57;18.37;;;7.27;;
4307;SDS011;2167;53.448;9.984;2023-05-07T03:42:22;9.07;;;5.40;;
4307;SDS011;2167;53.448;9.984;2023-05-07T03:44:48;12.40;;;6.13;;
4307;SDS011;2167;53.448;9.984;2023-05-07T03:47:16;7.63;;;5.90;;
4307;SDS011;2167;53.448;9.984;2023-05-07T03:49:42;10.80;;;5.90;;
4307;SDS011;2167;53.448;9.984;2023-05-07T03:52:07;8.50;;;5.30;;
4307;SDS011;2167;53.448;9.984;2023-05-07T03:54:33;8.17;;;6.30;;
4307;SDS011;2167;53.448;9.984;2023-05-07T03:56:59;8.83;;;5.93;;
4307;SDS011;2167;53.448;9.984;2023-05-07T03:59:24;9.97;;;5.90;;
4307;SDS011;2167;53.448;9.984;2023-05-07T04:01:50;7.93;;;5.27;;
4307;SDS011;2167;53.448;9.984;2023-05-07T04:04:15;9.17;;;6.37;;
4307;SDS011;2167;53.448;9.984;2023-05-07T04:06:41;10.00;;;6.10;;
4307;SDS011;2167;53.448;9.984;2023-05-07T04:09:07;9.50;;;6.00;;
4307;SDS011;2167;53.448;9.984;2023-05-07T04:11:33;9.33;;;5.37;;
4307;SDS011;2167;53.448;9.984;2023-05-07T04:14:00;10.47;;;6.50;;
4307;SDS011;2167;53.448;9.984;2023-05-07T04:16:26;10.87;;;6.07;;
4307;SDS011;2167;53.448;9.984;2023-05-07T04:18:52;10.00;;;6.13;;
4307;SDS011;2167;53.448;9.984;2023-05-07T04:21:18;10.63;;;6.10;;
4307;SDS011;2167;53.448;9.984;2023-05-07T04:23:45;11.40;;;5.67;;
4307;SDS011;2167;53.448;9.984;2023-05-07T04:26:12;8.70;;;5.53;;
4307;SDS011;2167;53.448;9.984;2023-05-07T04:28:38;9.97;;;6.57;;
4307;SDS011;2167;53.448;9.984;2023-05-07T04:31:04;8.57;;;5.77;;
4307;SDS011;2167;53.448;9.984;2023-05-07T04:33:30;9.63;;;6.10;;
4307;SDS011;2167;53.448;9.984;2023-05-07T04:35:56;8.03;;;5.63;;
4307;SDS011;2167;53.448;9.984;2023-05-07T04:38:22;7.03;;;4.70;;
4307;SDS011;2167;53.448;9.984;2023-05-07T04:40:48;9.10;;;5.70;;
4307;SDS011;2167;53.448;9.984;2023-05-07T04:43:14;5.47;;;4.70;;
4307;SDS011;2167;53.448;9.984;2023-05-07T04:45:41;8.07;;;5.40;;
4307;SDS011;2167;53.448;9.984;2023-05-07T04:48:06;6.37;;;4.77;;
4307;SDS011;2167;53.448;9.984;2023-05-07T04:50:33;9.53;;;5.53;;
4307;SDS011;2167;53.448;9.984;2023-05-07T04:52:59;10.60;;;5.73;;
4307;SDS011;2167;53.448;9.984;2023-05-07T04:55:24;12.87;;;5.70;;
4307;SDS011;2167;53.448;9.984;2023-05-07T04:57:50;9.37;;;5.83;;
4307;SDS011;2167;53.448;9.984;2023-05-07T05:00:16;7.93;;;6.07;;
4307;SDS011;2167;53.448;9.984;2023-05-07T05:02:44;12.53;;;6.03;;
4307;SDS011;2167;53.448;9.984;2023-05-07T05:05:10;10.13;;;6.20;;
4307;SDS011;2167;53.448;9.984;2023-05-07T05:07:36;9.83;;;5.77;;
4307;SDS011;2167;53.448;9.984;2023-05-07T05:10:02;7.30;;;4.93;;
4307;SDS011;2167;53.448;9.984;2023-05-07T05:12:29;10.40;;;5.27;;
4307;SDS011;2167;53.448;9.984;2023-05-07T05:14:55;10.97;;;5.67;;
4307;SDS011;2167;53.448;9.984;2023-05-07T05:17:20;7.40;;;5.50;;
4307;SDS011;2167;53.448;9.984;2023-05-07T05:19:46;8.60;;;6.50;;
4307;SDS011;2167;53.448;9.984;2023-05-07T05:22:12;7.27;;;4.80;;
4307;SDS011;2167;53.448;9.984;2023-05-07T05:24:37;12.80;;;6.20;;
4307;SDS011;2167;53.448;9.984;2023-05-07T05:27:03;12.67;;;5.80;;
4307;SDS011;2167;53.448;9.984;2023-05-07T05:29:30;9.07;;;5.80;;
4307;SDS011;2167;53.448;9.984;2023-05-07T05:31:56;6.87;;;4.70;;
4307;SDS011;2167;53.448;9.984;2023-05-07T05:34:22;8.57;;;4.63;;
4307;SDS011;2167;53.448;9.984;2023-05-07T05:36:47;9.03;;;5.70;;
4307;SDS011;2167;53.448;9.984;2023-05-07T05:39:13;11.97;;;5.93;;
4307;SDS011;2167;53.448;9.984;2023-05-07T05:41:39;10.20;;;5.40;;
4307;SDS011;2167;53.448;9.984;2023-05-07T05:44:04;10.53;;;5.40;;
4307;SDS011;2167;53.448;9.984;2023-05-07T05:46:30;6.30;;;5.03;;
4307;SDS011;2167;53.448;9.984;2023-05-07T05:48:56;12.50;;;6.17;;
4307;SDS011;2167;53.448;9.984;2023-05-07T05:51:21;10.27;;;6.73;;
4307;SDS011;2167;53.448;9.984;2023-05-07T05:53:48;12.53;;;6.43;;
4307;SDS011;2167;53.448;9.984;2023-05-07T05:56:14;10.60;;;6.20;;
4307;SDS011;2167;53.448;9.984;2023-05-07T05:58:40;10.70;;;5.03;;
4307;SDS011;2167;53.448;9.984;2023-05-07T06:01:06;12.67;;;6.10;;
4307;SDS011;2167;53.448;9.984;2023-05-07T06:03:32;9.03;;;5.30;;
4307;SDS011;2167;53.448;9.984;2023-05-07T06:05:57;13.20;;;6.20;;
4307;SDS011;2167;53.448;9.984;2023-05-07T06:08:23;11.63;;;5.60;;
4307;SDS011;2167;53.448;9.984;2023-05-07T06:10:49;11.57;;;7.07;;
4307;SDS011;2167;53.448;9.984;2023-05-07T06:13:15;11.77;;;6.50;;
4307;SDS011;2167;53.448;9.984;2023-05-07T06:15:40;11.40;;;6.60;;
4307;SDS011;2167;53.448;9.984;2023-05-07T06:18:12;10.13;;;5.77;;
4307;SDS011;2167;53.448;9.984;2023-05-07T06:20:37;8.37;;;6.00;;
4307;SDS011;2167;53.448;9.984;2023-05-07T06:23:03;10.87;;;5.63;;
4307;SDS011;2167;53.448;9.984;2023-05-07T06:25:28;10.93;;;5.13;;
4307;SDS011;2167;53.448;9.984;2023-05-07T06:27:54;11.77;;;6.67;;
4307;SDS011;2167;53.448;9.984;2023-05-07T06:30:20;8.37;;;5.30;;
4307;SDS011;2167;53.448;9.984;2023-05-07T06:32:48;9.77;;;6.60;;
4307;SDS011;2167;53.448;9.984;2023-05-07T06:35:14;12.23;;;5.27;;
4307;SDS011;2167;53.448;9.984;2023-05-07T06:37:40;12.00;;;6.40;;
4307;SDS011;2167;53.448;9.984;2023-05-07T06:40:16;10.43;;;6.10;;
4307;SDS011;2167;53.448;9.984;2023-05-07T06:42:42;8.77;;;5.93;;
4307;SDS011;2167;53.448;9.984;2023-05-07T06:45:08;9.43;;;6.43;;
4307;SDS011;2167;53.448;9.984;2023-05-07T06:47:33;8.60;;;5.27;;
4307;SDS011;2167;53.448;9.984;2023-05-07T06:49:59;6.97;;;5.13;;
4307;SDS011;2167;53.448;9.984;2023-05-07T06:52:25;11.80;;;6.37;;
4307;SDS011;2167;53.448;9.984;2023-05-07T06:54:51;8.10;;;5.60;;
4307;SDS011;2167;53.448;9.984;2023-05-07T06:57:16;7.60;;;4.77;;
4307;SDS011;2167;53.448;9.984;2023-05-07T06:59:42;7.27;;;5.80;;
4307;SDS011;2167;53.448;9.984;2023-05-07T07:02:07;14.43;;;7.07;;
4307;SDS011;2167;53.448;9.984;2023-05-07T07:04:33;8.87;;;4.93;;
4307;SDS011;2167;53.448;9.984;2023-05-07T07:06:59;10.90;;;5.33;;
4307;SDS011;2167;53.448;9.984;2023-05-07T07:09:24;7.37;;;4.37;;
4307;SDS011;2167;53.448;9.984;2023-05-07T07:11:50;10.77;;;5.40;;
4307;SDS011;2167;53.448;9.984;2023-05-07T07:14:16;8.53;;;4.43;;
4307;SDS011;2167;53.448;9.984;2023-05-07T07:16:41;10.87;;;5.10;;
4307;SDS011;2167;53.448;9.984;2023-05-07T07:19:07;6.97;;;5.30;;
4307;SDS011;2167;53.448;9.984;2023-05-07T07:21:33;9.50;;;5.70;;
4307;SDS011;2167;53.448;9.984;2023-05-07T07:23:58;7.30;;;4.60;;
4307;SDS011;2167;53.448;9.984;2023-05-07T07:26:24;4.73;;;3.50;;
4307;SDS011;2167;53.448;9.984;2023-05-07T07:28:50;6.60;;;5.10;;
4307;SDS011;2167;53.448;9.984;2023-05-07T07:31:15;6.07;;;4.40;;
4307;SDS011;2167;53.448;9.984;2023-05-07T07:33:41;8.10;;;5.50;;
4307;SDS011;2167;53.448;9.984;2023-05-07T07:36:07;6.03;;;4.70;;
4307;SDS011;2167;53.448;9.984;2023-05-07T07:38:33;4.63;;;4.17;;
4307;SDS011;2167;53.448;9.984;2023-05-07T07:40:59;7.17;;;4.20;;
4307;SDS011;2167;53.448;9.984;2023-05-07T07:43:25;6.30;;;4.00;;
4307;SDS011;2167;53.448;9.984;2023-05-07T07:45:50;5.97;;;4.33;;
4307;SDS011;2167;53.448;9.984;2023-05-07T07:48:16;6.80;;;4.07;;
4307;SDS011;2167;53.448;9.984;2023-05-07T07:50:42;6.63;;;4.53;;
4307;SDS011;2167;53.448;9.984;2023-05-07T07:53:07;8.10;;;4.07;;
4307;SDS011;2167;53.448;9.984;2023-05-07T07:55:37;6.90;;;4.40;;
4307;SDS011;2167;53.448;9.984;2023-05-07T07:58:06;5.67;;;4.20;;
4307;SDS011;2167;53.448;9.984;2023-05-07T08:00:32;8.67;;;4.80;;
4307;SDS011;2167;53.448;9.984;2023-05-07T08:02:57;4.13;;;3.53;;
4307;SDS011;2167;53.448;9.984;2023-05-07T08:05:23;4.43;;;3.80;;
4307;SDS011;2167;53.448;9.984;2023-05-07T08:07:48;8.10;;;5.43;;
4307;SDS011;2167;53.448;9.984;2023-05-07T08:10:18;8.47;;;4.43;;
4307;SDS011;2167;53.448;9.984;2023-05-07T08:12:47;5.20;;;4.47;;
4307;SDS011;2167;53.448;9.984;2023-05-07T08:15:14;6.80;;;4.63;;
4307;SDS011;2167;53.448;9.984;2023-05-07T08:17:40;5.20;;;4.40;;
4307;SDS011;2167;53.448;9.984;2023-05-07T08:20:06;7.80;;;4.87;;
4307;SDS011;2167;53.448;9.984;2023-05-07T08:22:32;5.83;;;3.80;;
4307;SDS011;2167;53.448;9.984;2023-05-07T08:24:59;6.93;;;4.67;;
4307;SDS011;2167;53.448;9.984;2023-05-07T08:27:25;6.63;;;4.87;;
4307;SDS011;2167;53.448;9.984;2023-05-07T08:29:50;5.70;;;4.13;;
4307;SDS011;2167;53.448;9.984;2023-05-07T08:32:16;7.57;;;4.87;;
4307;SDS011;2167;53.448;9.984;2023-05-07T08:34:42;5.40;;;3.80;;
4307;SDS011;2167;53.448;9.984;2023-05-07T08:37:07;5.23;;;3.87;;
4307;SDS011;2167;53.448;9.984;2023-05-07T08:39:33;7.00;;;5.10;;
4307;SDS011;2167;53.448;9.984;2023-05-07T08:42:00;6.67;;;4.07;;
4307;SDS011;2167;53.448;9.984;2023-05-07T08:44:29;4.10;;;3.70;;
4307;SDS011;2167;53.448;9.984;2023-05-07T08:47:01;5.67;;;3.87;;
4307;SDS011;2167;53.448;9.984;2023-05-07T08:49:27;4.67;;;3.67;;
4307;SDS011;2167;53.448;9.984;2023-05-07T08:51:53;7.03;;;4.10;;
4307;SDS011;2167;53.448;9.984;2023-05-07T08:54:21;6.93;;;3.70;;
4307;SDS011;2167;53.448;9.984;2023-05-07T08:56:47;4.60;;;3.60;;
4307;SDS011;2167;53.448;9.984;2023-05-07T08:59:13;6.73;;;4.23;;
4307;SDS011;2167;53.448;9.984;2023-05-07T09:01:39;8.47;;;4.13;;
4307;SDS011;2167;53.448;9.984;2023-05-07T09:04:04;4.70;;;4.30;;
4307;SDS011;2167;53.448;9.984;2023-05-07T09:06:31;5.97;;;4.33;;
4307;SDS011;2167;53.448;9.984;2023-05-07T09:08:57;4.03;;;3.63;;
4307;SDS011;2167;53.448;9.984;2023-05-07T09:11:26;6.10;;;4.57;;
4307;SDS011;2167;53.448;9.984;2023-05-07T09:13:55;5.50;;;4.23;;
4307;SDS011;2167;53.448;9.984;2023-05-07T09:16:22;5.70;;;4.20;;
4307;SDS011;2167;53.448;9.984;2023-05-07T09:18:52;5.90;;;4.27;;
4307;SDS011;2167;53.448;9.984;2023-05-07T09:21:19;7.93;;;4.83;;
4307;SDS011;2167;53.448;9.984;2023-05-07T09:23:48;6.03;;;4.33;;
4307;SDS011;2167;53.448;9.984;2023-05-07T09:26:15;6.57;;;4.30;;
4307;SDS011;2167;53.448;9.984;2023-05-07T09:28:41;5.33;;;4.10;;
4307;SDS011;2167;53.448;9.984;2023-05-07T09:31:07;5.70;;;4.17;;
4307;SDS011;2167;53.448;9.984;2023-05-07T09:33:34;4.60;;;4.20;;
4307;SDS011;2167;53.448;9.984;2023-05-07T09:36:06;5.80;;;4.20;;
4307;SDS011;2167;53.448;9.984;2023-05-07T09:38:33;8.57;;;4.57;;
4307;SDS011;2167;53.448;9.984;2023-05-07T09:43:36;5.67;;;5.10;;
4307;SDS011;2167;53.448;9.984;2023-05-07T09:46:03;5.57;;;3.87;;
4307;SDS011;2167;53.448;9.984;2023-05-07T09:48:42;5.40;;;4.43;;
4307;SDS011;2167;53.448;9.984;2023-05-07T09:51:24;9.43;;;5.43;;
4307;SDS011;2167;53.448;9.984;2023-05-07T09:53:54;5.97;;;4.50;;
4307;SDS011;2167;53.448;9.984;2023-05-07T09:56:22;11.50;;;5.33;;
4307;SDS011;2167;53.448;9.984;2023-05-07T09:58:48;6.27;;;4.63;;
4307;SDS011;2167;53.448;9.984;2023-05-07T10:01:16;8.20;;;5.10;;
4307;SDS011;2167;53.448;9.984;2023-05-07T10:03:44;7.07;;;4.33;;
4307;SDS011;2167;53.448;9.984;2023-05-07T10:06:10;4.80;;;4.20;;
4307;SDS011;2167;53.448;9.984;2023-05-07T10:08:38;5.73;;;4.43;;
4307;SDS011;2167;53.448;9.984;2023-05-07T10:11:04;5.50;;;3.87;;
4307;SDS011;2167;53.448;9.984;2023-05-07T10:13:32;10.73;;;4.47;;
4307;SDS011;2167;53.448;9.984;2023-05-07T10:16:00;10.80;;;5.57;;
4307;SDS011;2167;53.448;9.984;2023-05-07T10:18:27;10.97;;;5.70;;
4307;SDS011;2167;53.448;9.984;2023-05-07T10:20:58;7.20;;;4.60;;
4307;SDS011;2167;53.448;9.984;2023-05-07T10:23:36;7.17;;;4.97;;
4307;SDS011;2167;53.448;9.984;2023-05-07T10:26:04;8.73;;;5.37;;
4307;SDS011;2167;53.448;9.984;2023-05-07T10:28:33;8.50;;;5.10;;
4307;SDS011;2167;53.448;9.984;2023-05-07T10:33:46;4.83;;;4.10;;
4307;SDS011;2167;53.448;9.984;2023-05-07T10:36:13;9.97;;;4.73;;
4307;SDS011;2167;53.448;9.984;2023-05-07T10:38:39;6.13;;;4.40;;
4307;SDS011;2167;53.448;9.984;2023-05-07T10:41:05;4.40;;;3.83;;
4307;SDS011;2167;53.448;9.984;2023-05-07T10:43:41;6.60;;;4.40;;
4307;SDS011;2167;53.448;9.984;2023-05-07T10:49:06;5.47;;;4.60;;
4307;SDS011;2167;53.448;9.984;2023-05-07T10:51:32;5.90;;;4.30;;
4307;SDS011;2167;53.448;9.984;2023-05-07T10:54:31;5.27;;;4.20;;
4307;SDS011;2167;53.448;9.984;2023-05-07T10:56:50;8.37;;;5.27;;
4307;SDS011;2167;53.448;9.984;2023-05-07T11:01:59;6.10;;;4.53;;
4307;SDS011;2167;53.448;9.984;2023-05-07T11:04:31;8.53;;;3.90;;
4307;SDS011;2167;53.448;9.984;2023-05-07T11:15:01;6.77;;;3.93;;
4307;SDS011;2167;53.448;9.984;2023-05-07T11:17:29;4.70;;;4.30;;
4307;SDS011;2167;53.448;9.984;2023-05-07T11:19:57;6.07;;;4.70;;
4307;SDS011;2167;53.448;9.984;2023-05-07T11:24:59;5.90;;;3.77;;
4307;SDS011;2167;53.448;9.984;2023-05-07T11:27:25;7.17;;;5.10;;
4307;SDS011;2167;53.448;9.984;2023-05-07T11:29:51;6.20;;;4.83;;
4307;SDS011;2167;53.448;9.984;2023-05-07T11:32:27;5.13;;;4.00;;
4307;SDS011;2167;53.448;9.984;2023-05-07T11:34:55;4.90;;;3.67;;
4307;SDS011;2167;53.448;9.984;2023-05-07T11:37:22;6.90;;;3.90;;
4307;SDS011;2167;53.448;9.984;2023-05-07T11:39:49;4.97;;;4.47;;
4307;SDS011;2167;53.448;9.984;2023-05-07T11:42:37;6.03;;;4.03;;
4307;SDS011;2167;53.448;9.984;2023-05-07T11:45:04;4.43;;;3.80;;
4307;SDS011;2167;53.448;9.984;2023-05-07T11:47:30;6.00;;;3.90;;
4307;SDS011;2167;53.448;9.984;2023-05-07T11:49:56;5.10;;;3.83;;
4307;SDS011;2167;53.448;9.984;2023-05-07T11:52:26;4.83;;;3.87;;
4307;SDS011;2167;53.448;9.984;2023-05-07T11:54:56;6.30;;;3.70;;
4307;SDS011;2167;53.448;9.984;2023-05-07T11:57:23;6.53;;;4.20;;
4307;SDS011;2167;53.448;9.984;2023-05-07T12:00:07;5.70;;;4.00;;
4307;SDS011;2167;53.448;9.984;2023-05-07T12:02:34;4.60;;;4.20;;
4307;SDS011;2167;53.448;9.984;2023-05-07T12:05:00;4.40;;;3.67;;
4307;SDS011;2167;53.448;9.984;2023-05-07T12:07:27;5.60;;;4.20;;
4307;SDS011;2167;53.448;9.984;2023-05-07T12:09:53;5.17;;;4.03;;
4307;SDS011;2167;53.448;9.984;2023-05-07T12:12:19;5.90;;;3.33;;
4307;SDS011;2167;53.448;9.984;2023-05-07T12:14:45;5.23;;;4.73;;
4307;SDS011;2167;53.448;9.984;2023-05-07T12:17:12;6.70;;;4.63;;
4307;SDS011;2167;53.448;9.984;2023-05-07T12:19:39;6.10;;;4.87;;
4307;SDS011;2167;53.448;9.984;2023-05-07T12:22:07;5.43;;;3.93;;
4307;SDS011;2167;53.448;9.984;2023-05-07T12:24:46;7.87;;;4.57;;
4307;SDS011;2167;53.448;9.984;2023-05-07T12:27:13;5.30;;;3.80;;
4307;SDS011;2167;53.448;9.984;2023-05-07T12:29:43;4.17;;;3.77;;
4307;SDS011;2167;53.448;9.984;2023-05-07T12:32:13;6.30;;;5.07;;
4307;SDS011;2167;53.448;9.984;2023-05-07T12:34:40;8.10;;;6.30;;
4307;SDS011;2167;53.448;9.984;2023-05-07T12:37:06;4.23;;;3.83;;
4307;SDS011;2167;53.448;9.984;2023-05-07T12:39:31;3.50;;;3.10;;
4307;SDS011;2167;53.448;9.984;2023-05-07T12:41:58;3.37;;;3.00;;
4307;SDS011;2167;53.448;9.984;2023-05-07T12:44:33;5.80;;;3.67;;
4307;SDS011;2167;53.448;9.984;2023-05-07T12:47:02;5.37;;;4.13;;
4307;SDS011;2167;53.448;9.984;2023-05-07T12:49:28;4.50;;;3.80;;
4307;SDS011;2167;53.448;9.984;2023-05-07T12:51:54;3.13;;;2.80;;
4307;SDS011;2167;53.448;9.984;2023-05-07T12:54:32;5.70;;;3.90;;
4307;SDS011;2167;53.448;9.984;2023-05-07T12:57:04;4.33;;;3.20;;
4307;SDS011;2167;53.448;9.984;2023-05-07T12:59:35;5.00;;;3.10;;
4307;SDS011;2167;53.448;9.984;2023-05-07T13:02:02;3.30;;;3.00;;
4307;SDS011;2167;53.448;9.984;2023-05-07T13:04:27;4.50;;;3.30;;
4307;SDS011;2167;53.448;9.984;2023-05-07T13:06:53;4.50;;;3.20;;
4307;SDS011;2167;53.448;9.984;2023-05-07T13:09:21;5.50;;;4.53;;
4307;SDS011;2167;53.448;9.984;2023-05-07T13:11:47;4.97;;;3.53;;
4307;SDS011;2167;53.448;9.984;2023-05-07T13:14:12;2.60;;;2.37;;
4307;SDS011;2167;53.448;9.984;2023-05-07T13:16:38;3.77;;;3.20;;
4307;SDS011;2167;53.448;9.984;2023-05-07T13:19:07;4.07;;;2.67;;
4307;SDS011;2167;53.448;9.984;2023-05-07T13:21:32;3.07;;;2.87;;
4307;SDS011;2167;53.448;9.984;2023-05-07T13:23:58;3.03;;;2.73;;
4307;SDS011;2167;53.448;9.984;2023-05-07T13:26:24;4.17;;;3.13;;
4307;SDS011;2167;53.448;9.984;2023-05-07T13:28:51;3.33;;;2.87;;
4307;SDS011;2167;53.448;9.984;2023-05-07T13:31:17;3.33;;;2.97;;
4307;SDS011;2167;53.448;9.984;2023-05-07T13:33:43;3.00;;;2.70;;
4307;SDS011;2167;53.448;9.984;2023-05-07T13:36:08;5.13;;;2.90;;
4307;SDS011;2167;53.448;9.984;2023-05-07T13:38:34;2.57;;;2.37;;
4307;SDS011;2167;53.448;9.984;2023-05-07T13:41:00;2.50;;;2.30;;
4307;SDS011;2167;53.448;9.984;2023-05-07T13:43:26;3.30;;;3.00;;
4307;SDS011;2167;53.448;9.984;2023-05-07T13:45:51;3.80;;;2.90;;
4307;SDS011;2167;53.448;9.984;2023-05-07T13:48:17;2.80;;;2.60;;
4307;SDS011;2167;53.448;9.984;2023-05-07T13:50:43;3.60;;;2.77;;
4307;SDS011;2167;53.448;9.984;2023-05-07T13:53:08;3.70;;;2.30;;
4307;SDS011;2167;53.448;9.984;2023-05-07T13:55:37;3.37;;;3.07;;
4307;SDS011;2167;53.448;9.984;2023-05-07T13:58:02;2.67;;;2.47;;
4307;SDS011;2167;53.448;9.984;2023-05-07T14:00:28;3.07;;;2.80;;
4307;SDS011;2167;53.448;9.984;2023-05-07T14:02:55;3.70;;;2.50;;
4307;SDS011;2167;53.448;9.984;2023-05-07T14:05:21;2.77;;;2.00;;
4307;SDS011;2167;53.448;9.984;2023-05-07T14:07:51;3.53;;;2.10;;
4307;SDS011;2167;53.448;9.984;2023-05-07T14:10:18;5.93;;;2.97;;
4307;SDS011;2167;53.448;9.984;2023-05-07T14:12:44;2.20;;;2.10;;
4307;SDS011;2167;53.448;9.984;2023-05-07T14:15:10;3.60;;;2.23;;
4307;SDS011;2167;53.448;9.984;2023-05-07T14:17:36;2.40;;;1.60;;
4307;SDS011;2167;53.448;9.984;2023-05-07T14:20:02;3.90;;;2.07;;
4307;SDS011;2167;53.448;9.984;2023-05-07T14:22:28;2.20;;;2.00;;
4307;SDS011;2167;53.448;9.984;2023-05-07T14:24:53;2.20;;;2.00;;
4307;SDS011;2167;53.448;9.984;2023-05-07T14:27:19;2.10;;;1.87;;
4307;SDS011;2167;53.448;9.984;2023-05-07T14:29:45;2.70;;;2.30;;
4307;SDS011;2167;53.448;9.984;2023-05-07T14:32:15;2.57;;;2.30;;
4307;SDS011;2167;53.448;9.984;2023-05-07T14:34:44;1.87;;;1.77;;
4307;SDS011;2167;53.448;9.984;2023-05-07T14:37:10;3.10;;;2.10;;
4307;SDS011;2167;53.448;9.984;2023-05-07T14:39:36;3.27;;;2.10;;
4307;SDS011;2167;53.448;9.984;2023-05-07T14:42:02;2.27;;;1.90;;
4307;SDS011;2167;53.448;9.984;2023-05-07T14:44:28;2.40;;;2.03;;
4307;SDS011;2167;53.448;9.984;2023-05-07T14:46:53;2.10;;;1.93;;
4307;SDS011;2167;53.448;9.984;2023-05-07T14:49:19;2.97;;;2.10;;
4307;SDS011;2167;53.448;9.984;2023-05-07T14:51:45;2.40;;;1.90;;
4307;SDS011;2167;53.448;9.984;2023-05-07T14:54:12;2.00;;;1.90;;
4307;SDS011;2167;53.448;9.984;2023-05-07T14:56:38;2.80;;;2.10;;
4307;SDS011;2167;53.448;9.984;2023-05-07T14:59:04;2.90;;;2.53;;
4307;SDS011;2167;53.448;9.984;2023-05-07T15:01:31;4.40;;;2.33;;
4307;SDS011;2167;53.448;9.984;2023-05-07T15:03:56;2.13;;;1.90;;
4307;SDS011;2167;53.448;9.984;2023-05-07T15:06:22;2.90;;;2.03;;
4307;SDS011;2167;53.448;9.984;2023-05-07T15:08:48;1.80;;;1.70;;
4307;SDS011;2167;53.448;9.984;2023-05-07T15:11:13;2.00;;;1.80;;
4307;SDS011;2167;53.448;9.984;2023-05-07T15:13:39;1.87;;;1.77;;
4307;SDS011;2167;53.448;9.984;2023-05-07T15:16:06;3.43;;;2.63;;
4307;SDS011;2167;53.448;9.984;2023-05-07T15:18:32;1.90;;;1.80;;
4307;SDS011;2167;53.448;9.984;2023-05-07T15:20:57;3.80;;;1.97;;
4307;SDS011;2167;53.448;9.984;2023-05-07T15:23:23;3.93;;;2.33;;
4307;SDS011;2167;53.448;9.984;2023-05-07T15:25:49;1.73;;;1.63;;
4307;SDS011;2167;53.448;9.984;2023-05-07T15:28:14;3.43;;;2.10;;
4307;SDS011;2167;53.448;9.984;2023-05-07T15:30:40;2.67;;;2.03;;